Terminal Aerodrome Forecast
Issued by NWS Detroit/Pontiac, MI

Home | Current Version | Previous Version | Text Only | Print | Product List | Glossary On
Versions: 1 2 3 4 5 6 7 8 9 10 11 12 13 14 15 16 17 18 19
103
FTUS43 KDTX 261120
TAFFNT
TAF
KFNT 261120Z 2612/2712 11007KT 6SM BR OVC008
     FM261400 11008KT 5SM BR BKN012 OVC060
     FM261700 13010KT 3SM -RA SCT012 OVC025
     FM262200 16010KT 5SM -SHRA BKN010 OVC025
     FM270100 16008KT 3SM -SHRA BR OVC006
     FM270500 21008KT 3SM -DZ BR OVC006=

USA.gov is the U.S. government's official web portal to all federal, state and local government web resources and services.